Terminal Aerodrome Forecast
Issued by NWS Binghamton, NY

Home | Current Version | Previous Version | Text Only | Print | Product List | Glossary On
Versions: 1 2 3 4 5 6 7 8 9 10 11 12 13 14 15
165
FTUS41 KBGM 210537
TAFSYR
TAF
KSYR 210537Z 2106/2206 VRB03KT P6SM SKC
     FM211300 12007KT P6SM SCT200
     FM211700 16009KT P6SM BKN200
     FM220100 18007KT 5SM -SHRA OVC035=

USA.gov is the U.S. government's official web portal to all federal, state and local government web resources and services.